createdAt,value
2022-10-22T00:01:09.426Z,100362.09
2022-10-22T00:03:36.181Z,100198.66
2022-10-22T00:06:03.904Z,100426.78
2022-10-22T00:08:31.414Z,99928.47
2022-10-22T00:10:58.281Z,100186.19
2022-10-22T00:13:25.396Z,100212.25
2022-10-22T00:15:52.059Z,100414.69
2022-10-22T00:18:20.240Z,100336.59
2022-10-22T00:20:47.035Z,100191.34
2022-10-22T00:23:14.500Z,100359.22
2022-10-22T00:25:43.642Z,100377.63
2022-10-22T00:28:11.582Z,100249.72
2022-10-22T00:30:38.302Z,100330.72
2022-10-22T00:33:04.924Z,100229.63
2022-10-22T00:35:32.349Z,100036.34
2022-10-22T00:38:00.089Z,100488.34
2022-10-22T00:40:27.205Z,100306.50
2022-10-22T00:42:54.604Z,100070.59
2022-10-22T00:45:25.370Z,100314.09
2022-10-22T00:48:21.553Z,100477.06
2022-10-22T00:50:58.629Z,100471.56
2022-10-22T00:53:31.495Z,100115.81
2022-10-22T00:55:59.279Z,100290.84
2022-10-22T00:58:29.495Z,100149.06
2022-10-22T01:00:57.108Z,100229.25
2022-10-22T01:03:24.622Z,100454.50
2022-10-22T01:05:59.981Z,100193.84
2022-10-22T01:08:41.472Z,100478.34
2022-10-22T01:11:35.852Z,100169.03
2022-10-22T01:14:41.216Z,100253.25
2022-10-22T01:17:23.661Z,100454.13
2022-10-22T01:20:23.641Z,100142.06
2022-10-22T01:23:00.405Z,100455.72
2022-10-22T01:25:46.138Z,100327.53
2022-10-22T01:28:51.787Z,100408.97
2022-10-22T01:31:22.077Z,100216.94
2022-10-22T01:33:51.160Z,100137.84
2022-10-22T01:36:19.209Z,100373.69
2022-10-22T01:38:47.633Z,100185.06
2022-10-22T01:41:14.581Z,100299.22
2022-10-22T01:43:42.197Z,100401.38
2022-10-22T01:46:11.660Z,99989.19
2022-10-22T01:49:16.726Z,100446.59
2022-10-22T01:52:03.693Z,100016.91
2022-10-22T01:54:42.653Z,100447.88
2022-10-22T01:57:17.844Z,100220.28
2022-10-22T01:59:54.657Z,100449.72
2022-10-22T02:02:40.938Z,100446.75
2022-10-22T02:05:36.206Z,100246.19
2022-10-22T02:08:09.154Z,100173.34
2022-10-22T02:10:39.585Z,99944.22
2022-10-22T02:13:12.696Z,100467.97
2022-10-22T02:15:42.027Z,100267.13
2022-10-22T02:18:10.139Z,100209.31
2022-10-22T02:20:41.945Z,100179.75
2022-10-22T02:23:10.521Z,100271.63
2022-10-22T02:25:45.025Z,100447.63
2022-10-22T02:28:24.699Z,100448.69
2022-10-22T02:30:56.656Z,100271.69
2022-10-22T02:33:28.751Z,100143.31
2022-10-22T02:35:56.299Z,100462.59
2022-10-22T02:38:25.161Z,100454.13
2022-10-22T02:40:51.993Z,100044.06
2022-10-22T02:43:19.767Z,100418.72
2022-10-22T02:45:47.305Z,100471.84
2022-10-22T02:48:14.381Z,100446.41
2022-10-22T02:50:42.001Z,100241.84
2022-10-22T02:53:08.639Z,100209.97
2022-10-22T02:55:35.469Z,100264.59
2022-10-22T02:58:03.465Z,100420.25
2022-10-22T03:00:30.285Z,100121.44
2022-10-22T03:02:56.910Z,100359.19
2022-10-22T03:05:23.661Z,100471.44
2022-10-22T03:07:50.332Z,100209.81
2022-10-22T03:10:17.280Z,99937.09
2022-10-22T03:12:44.037Z,100137.19
2022-10-22T03:15:10.745Z,100136.84
2022-10-22T03:17:37.562Z,100198.72
2022-10-22T03:20:05.661Z,100178.09
2022-10-22T03:22:33.985Z,100243.19
2022-10-22T03:25:07.821Z,100326.91
2022-10-22T03:27:37.657Z,100448.38
2022-10-22T03:30:05.354Z,100252.63
2022-10-22T03:32:32.128Z,100127.81
2022-10-22T03:37:31.727Z,100082.06
2022-10-22T03:39:58.616Z,100225.53
2022-10-22T03:42:25.376Z,99967.22
2022-10-22T03:44:52.805Z,100221.19
2022-10-22T03:47:21.143Z,100108.47
2022-10-22T03:49:47.778Z,100277.25
2022-10-22T03:52:15.193Z,100288.94
2022-10-22T03:54:42.827Z,100022.22
2022-10-22T03:57:11.282Z,100493.88
2022-10-22T03:59:40.912Z,100315.59
2022-10-22T04:02:08.699Z,100495.72
2022-10-22T04:04:36.050Z,100079.69
2022-10-22T04:07:02.892Z,100293.16
2022-10-22T04:09:34.222Z,100301.84
2022-10-22T04:12:01.337Z,100276.63
2022-10-22T04:14:28.043Z,100290.50
2022-10-22T04:16:55.653Z,100376.00
2022-10-22T04:19:22.317Z,100282.34
2022-10-22T04:21:49.307Z,100323.69
2022-10-22T04:24:16.734Z,100507.97
2022-10-22T04:26:43.696Z,100443.19
2022-10-22T04:29:15.932Z,100514.88
2022-10-22T04:31:43.549Z,100345.84
2022-10-22T04:34:10.165Z,100334.72
2022-10-22T04:36:36.830Z,100228.38
2022-10-22T04:39:04.734Z,100368.94
2022-10-22T04:41:37.087Z,100526.66
2022-10-22T04:44:04.932Z,100369.56
2022-10-22T04:46:34.583Z,100361.16
2022-10-22T04:49:03.794Z,100240.84
2022-10-22T04:51:31.819Z,100481.81
2022-10-22T04:53:58.562Z,100420.50
2022-10-22T04:56:27.877Z,100536.25
2022-10-22T04:58:57.356Z,100292.78
2022-10-22T05:01:32.335Z,100303.53
2022-10-22T05:04:01.239Z,100264.69
2022-10-22T05:06:29.800Z,100306.31
2022-10-22T05:08:58.978Z,100375.31
2022-10-22T05:11:29.096Z,100317.38
2022-10-22T05:13:57.392Z,100468.56
2022-10-22T05:16:24.838Z,100403.13
2022-10-22T05:18:54.132Z,100239.34
2022-10-22T05:21:21.933Z,100280.31
2022-10-22T05:23:50.279Z,100378.94
2022-10-22T05:26:21.807Z,100558.03
2022-10-22T05:28:49.638Z,100562.28
2022-10-22T05:31:17.092Z,100461.00
2022-10-22T05:33:44.319Z,100445.38
2022-10-22T05:36:16.155Z,100352.69
2022-10-22T05:38:43.446Z,100203.13
2022-10-22T05:41:13.068Z,100480.66
2022-10-22T05:43:40.344Z,100582.94
2022-10-22T05:46:22.969Z,100580.66
2022-10-22T05:48:58.270Z,100104.16
2022-10-22T05:51:26.689Z,100399.44
2022-10-22T05:53:58.815Z,100601.25
2022-10-22T05:56:27.070Z,100417.47
2022-10-22T05:58:53.768Z,100442.91
2022-10-22T06:01:27.435Z,100074.59
2022-10-22T06:03:55.948Z,100097.75
2022-10-22T06:06:39.602Z,100609.25
2022-10-22T06:09:06.384Z,100615.22
2022-10-22T06:11:35.185Z,100613.53
2022-10-22T06:14:02.915Z,100341.91
2022-10-22T06:16:30.423Z,100180.97
2022-10-22T06:19:01.049Z,100243.25
2022-10-22T06:21:29.208Z,100439.25
2022-10-22T06:23:58.835Z,100212.59
2022-10-22T06:26:25.828Z,100563.22
2022-10-22T06:28:52.939Z,100568.78
2022-10-22T06:31:20.511Z,100320.75
2022-10-22T06:33:47.086Z,100447.31
2022-10-22T06:36:18.141Z,100652.69
2022-10-22T06:38:45.169Z,100518.75
2022-10-22T06:41:15.357Z,100445.34
2022-10-22T06:43:47.772Z,100289.13
2022-10-22T06:46:19.856Z,100364.47
2022-10-22T06:48:52.456Z,100455.38
2022-10-22T06:51:21.144Z,100669.97
2022-10-22T06:53:48.074Z,100353.63
2022-10-22T06:56:17.719Z,100678.31
2022-10-22T06:58:48.298Z,100680.94
2022-10-22T07:01:16.925Z,100411.63
2022-10-22T07:03:44.401Z,100254.38
2022-10-22T07:06:13.959Z,100470.75
2022-10-22T07:08:42.179Z,100557.59
2022-10-22T07:11:12.050Z,100691.22
2022-10-22T07:13:38.626Z,100667.94
2022-10-22T07:16:07.137Z,100660.28
2022-10-22T07:18:35.708Z,100699.75
2022-10-22T07:21:02.413Z,100702.72
2022-10-22T07:23:29.804Z,100642.13
2022-10-22T07:28:29.759Z,100710.09
2022-10-22T07:30:56.394Z,100538.31
2022-10-22T07:33:23.186Z,100610.69
2022-10-22T07:35:49.811Z,100301.34
2022-10-22T07:38:16.462Z,100494.59
2022-10-22T07:40:43.068Z,100658.41
2022-10-22T07:43:11.173Z,100631.97
2022-10-22T07:45:37.778Z,100620.69
2022-10-22T07:48:04.848Z,100484.59
2022-10-22T07:50:31.587Z,100554.28
2022-10-22T07:52:58.543Z,100496.31
2022-10-22T07:55:25.697Z,100575.81
2022-10-22T07:57:52.759Z,100708.44
2022-10-22T08:00:23.041Z,100600.84
2022-10-22T08:02:52.045Z,100385.88
2022-10-22T08:05:19.190Z,100775.09
2022-10-22T08:07:45.937Z,100773.66
2022-10-22T08:10:13.933Z,100404.56
2022-10-22T08:12:42.454Z,100658.34
2022-10-22T08:15:09.923Z,100498.03
2022-10-22T08:17:38.942Z,100585.00
2022-10-22T08:20:06.187Z,100585.94
2022-10-22T08:22:32.964Z,100703.66
2022-10-22T08:25:00.535Z,100532.88
2022-10-22T08:27:27.286Z,100489.53
2022-10-22T08:29:54.012Z,100794.38
2022-10-22T08:32:20.875Z,100559.28
2022-10-22T08:34:47.703Z,100517.72
2022-10-22T08:37:14.688Z,100540.88
2022-10-22T08:39:42.758Z,100181.28
2022-10-22T08:42:37.257Z,100806.56
2022-10-22T08:45:13.541Z,100807.34
2022-10-22T08:47:55.489Z,100812.13
2022-10-22T08:50:45.570Z,100620.97
2022-10-22T08:53:27.911Z,100658.94
2022-10-22T08:55:54.719Z,100586.97
2022-10-22T08:58:41.978Z,100825.50
2022-10-22T09:01:20.931Z,100836.59
2022-10-22T09:03:57.240Z,100729.66
2022-10-22T14:45:56.102Z,100666.91
2022-10-22T14:48:24.225Z,100623.03
2022-10-22T14:50:51.211Z,100889.50
2022-10-22T14:53:18.169Z,100699.38
2022-10-22T14:55:47.302Z,100381.66
2022-10-22T14:58:14.858Z,100797.31
2022-10-22T15:00:42.885Z,100787.19
2022-10-22T15:03:10.173Z,100895.66
2022-10-22T15:05:43.390Z,100577.28
2022-10-22T15:08:14.878Z,100679.25
2022-10-22T15:10:41.920Z,100851.91
2022-10-22T15:13:09.172Z,100673.94
2022-10-22T15:15:39.443Z,100767.72
2022-10-22T15:18:07.171Z,100770.66
2022-10-22T15:20:33.937Z,100417.78
2022-10-22T15:23:00.724Z,100754.34
2022-10-22T15:25:27.688Z,100523.22
2022-10-22T15:27:58.469Z,100896.41
2022-10-22T15:30:31.525Z,100711.13
2022-10-22T15:32:58.210Z,100666.28
2022-10-22T15:35:28.556Z,100700.88
2022-10-22T15:37:55.206Z,100606.47
2022-10-22T15:40:21.898Z,100669.28
2022-10-22T15:42:48.566Z,100450.75
2022-10-22T15:45:15.804Z,100561.84
2022-10-22T15:47:47.616Z,100659.97
2022-10-22T15:50:15.116Z,100812.19
2022-10-22T15:52:42.279Z,100742.03
2022-10-22T15:55:10.641Z,100755.03
2022-10-22T15:57:38.439Z,100588.84
2022-10-22T16:00:06.338Z,100736.97
2022-10-22T16:02:39.064Z,100677.81
2022-10-22T16:05:06.896Z,100671.56
2022-10-22T16:07:33.473Z,100393.41
2022-10-22T16:10:01.554Z,100810.94
2022-10-22T16:12:28.229Z,100596.09
2022-10-22T16:14:54.873Z,100699.72
2022-10-22T16:17:21.563Z,100684.81
2022-10-22T16:19:48.588Z,100686.69
2022-10-22T16:22:15.799Z,100462.00
2022-10-22T16:24:43.129Z,100489.84
2022-10-22T16:27:10.826Z,100675.00
2022-10-22T16:29:39.297Z,100905.94
2022-10-22T16:32:06.292Z,100875.09
2022-10-22T16:34:32.971Z,100890.50
2022-10-22T16:36:59.589Z,100636.75
2022-10-22T16:39:26.237Z,100636.91
2022-10-22T16:41:52.823Z,100847.94
2022-10-22T16:44:19.646Z,100758.13
2022-10-22T16:46:46.560Z,100927.59
2022-10-22T16:49:13.254Z,100920.22
2022-10-22T16:51:39.888Z,100627.94
2022-10-22T16:54:09.715Z,100751.31
2022-10-22T16:56:38.931Z,100928.34
2022-10-22T16:59:06.764Z,100930.50
2022-10-22T17:01:37.939Z,100935.81
2022-10-22T17:04:07.213Z,100682.28
2022-10-22T17:06:33.930Z,100752.19
2022-10-22T17:09:00.733Z,100849.22
2022-10-22T17:11:30.070Z,100653.34
2022-10-22T17:13:57.153Z,100747.44
2022-10-22T17:16:24.924Z,100690.66
2022-10-22T17:18:53.897Z,100728.50
2022-10-22T17:21:21.339Z,100562.31
2022-10-22T17:23:48.414Z,100897.53
2022-10-22T17:26:20.827Z,100642.94
2022-10-22T17:28:48.705Z,100522.97
2022-10-22T17:31:15.472Z,100946.00
2022-10-22T17:33:42.296Z,100685.31
2022-10-22T17:36:10.953Z,100781.44
2022-10-22T17:38:38.933Z,100604.47
2022-10-22T17:41:07.503Z,100603.31
2022-10-22T17:43:37.848Z,100662.00
2022-10-22T17:46:13.319Z,100959.16
2022-10-22T17:48:40.321Z,100677.59
2022-10-22T17:51:08.631Z,100766.47
2022-10-22T17:53:35.771Z,100656.97
2022-10-22T17:56:09.593Z,100772.09
2022-10-22T17:58:36.608Z,100614.31
2022-10-22T18:01:03.804Z,100445.31
2022-10-22T18:03:30.742Z,100912.09
2022-10-22T18:06:06.027Z,100737.56
2022-10-22T18:08:33.131Z,100798.25
2022-10-22T18:11:00.222Z,100686.09
2022-10-22T18:13:26.882Z,100907.94
2022-10-22T18:15:55.120Z,100730.47
2022-10-22T18:18:22.990Z,100550.03
2022-10-22T18:20:50.741Z,100615.34
2022-10-22T18:23:20.717Z,100565.38
2022-10-22T18:25:48.679Z,100740.81
2022-10-22T18:28:17.784Z,100604.75
2022-10-22T18:30:46.128Z,100911.03
2022-10-22T18:33:15.281Z,100739.06
2022-10-22T18:35:42.167Z,100758.69
2022-10-22T18:38:10.125Z,100898.53
2022-10-22T18:40:44.696Z,100962.84
2022-10-22T18:43:11.825Z,100614.75
2022-10-22T18:45:43.367Z,100368.44
2022-10-22T18:48:10.620Z,100974.66
2022-10-22T18:50:37.435Z,100822.69
2022-10-22T18:53:04.367Z,100867.91
2022-10-22T18:55:31.485Z,100681.22
2022-10-22T18:57:58.299Z,100961.56
2022-10-22T19:00:26.701Z,100629.09
2022-10-22T19:02:54.880Z,100722.69
2022-10-22T19:05:22.054Z,100350.34
2022-10-22T19:07:51.983Z,100771.09
2022-10-22T19:10:18.863Z,100800.81
2022-10-22T19:12:45.668Z,100554.41
2022-10-22T19:15:12.611Z,100316.75
2022-10-22T19:17:39.429Z,100605.88
2022-10-22T19:20:07.279Z,100941.31
2022-10-22T19:22:34.159Z,100948.88
2022-10-22T19:25:01.373Z,100591.09
2022-10-22T19:27:29.311Z,100481.97
2022-10-22T19:29:56.334Z,100621.41
2022-10-22T19:32:24.436Z,100446.47
2022-10-22T19:34:53.554Z,100819.03
2022-10-22T19:37:20.860Z,100806.19
2022-10-22T19:39:49.797Z,100817.88
2022-10-22T19:42:16.547Z,100687.66
2022-10-22T19:44:43.283Z,100952.69
2022-10-22T19:47:11.337Z,100956.81
2022-10-22T19:49:38.021Z,100587.47
2022-10-22T19:52:04.809Z,100695.94
2022-10-22T19:54:31.432Z,100612.66
2022-10-22T19:56:58.098Z,100820.34
2022-10-22T19:59:28.659Z,100772.16
2022-10-22T20:01:57.966Z,100913.72
2022-10-22T20:04:26.763Z,100714.34
2022-10-22T20:06:58.776Z,100826.81
2022-10-22T20:09:25.511Z,100898.41
2022-10-22T20:11:52.125Z,100768.31
2022-10-22T20:14:18.732Z,100873.44
2022-10-22T20:16:45.694Z,100895.44
2022-10-22T20:19:16.196Z,100600.38
2022-10-22T20:21:43.875Z,100679.34
2022-10-22T20:24:11.081Z,100859.31
2022-10-22T20:26:37.879Z,100966.09
2022-10-22T20:29:04.479Z,100671.50
2022-10-22T20:31:32.963Z,100955.53
2022-10-22T20:34:01.207Z,100902.28
2022-10-22T20:36:29.939Z,100971.00
2022-10-22T20:39:06.336Z,100836.38
2022-10-22T20:41:34.775Z,100795.56
2022-10-22T20:44:01.868Z,100725.25
2022-10-22T20:46:31.282Z,100735.75
2022-10-22T20:49:04.434Z,100555.53
2022-10-22T20:51:31.683Z,100915.91
2022-10-22T20:53:58.309Z,100585.91
2022-10-22T20:56:25.190Z,100698.91
2022-10-22T20:58:57.253Z,100785.03
2022-10-22T21:01:24.312Z,100705.34
2022-10-22T21:03:52.530Z,100749.94
2022-10-22T21:06:23.561Z,100768.34
2022-10-22T21:08:51.558Z,100978.34
2022-10-22T21:11:18.941Z,100892.66
2022-10-22T21:13:45.711Z,100826.75
2022-10-22T21:16:14.556Z,100991.31
2022-10-22T21:18:41.199Z,100911.72
2022-10-22T21:21:09.025Z,100788.03
2022-10-22T21:23:36.543Z,100978.13
2022-10-22T21:26:04.205Z,100983.63
2022-10-22T21:28:35.412Z,100989.94
2022-10-22T21:31:08.235Z,100985.09
2022-10-22T21:33:39.511Z,100833.31
2022-10-22T21:36:08.937Z,100560.09
2022-10-22T21:38:37.102Z,100968.91
2022-10-22T21:41:08.231Z,100695.50
2022-10-22T21:43:37.673Z,100844.94
2022-10-22T21:46:08.189Z,100691.59
2022-10-22T21:48:36.599Z,100972.97
2022-10-22T21:51:08.901Z,100972.53
2022-10-22T21:53:36.724Z,100716.53
2022-10-22T21:56:04.551Z,100650.16
2022-10-22T21:58:31.344Z,100644.09
2022-10-22T22:00:58.542Z,100974.50
2022-10-22T22:03:25.191Z,100863.53
2022-10-22T22:05:57.869Z,100837.13
2022-10-22T22:08:24.948Z,100607.78
2022-10-22T22:10:52.184Z,100781.97
2022-10-22T22:13:19.824Z,100896.00
2022-10-22T22:15:46.441Z,100633.94
2022-10-22T22:18:13.061Z,100925.22
2022-10-22T22:20:39.742Z,100692.72
2022-10-22T22:23:06.615Z,100695.94
2022-10-22T22:25:33.261Z,100620.22
2022-10-22T22:28:00.044Z,100950.56
2022-10-22T22:30:28.219Z,100712.56
2022-10-22T22:32:54.924Z,100877.94
2022-10-22T22:35:22.017Z,100755.69
2022-10-22T22:37:48.675Z,100890.91
2022-10-22T22:40:15.240Z,100557.28
2022-10-22T22:42:41.846Z,100553.00
2022-10-22T22:45:08.716Z,100946.88
2022-10-22T22:47:35.410Z,100754.75
2022-10-22T22:50:02.022Z,100648.75
2022-10-22T22:52:28.659Z,100760.41
2022-10-22T22:54:55.282Z,100869.16
2022-10-22T22:57:21.943Z,100783.09
2022-10-22T22:59:52.004Z,100939.97
2022-10-22T23:02:18.737Z,100924.16
2022-10-22T23:04:45.324Z,100665.97
2022-10-22T23:07:12.011Z,100693.25
2022-10-22T23:09:38.666Z,100452.81
2022-10-22T23:12:05.626Z,100534.59
2022-10-22T23:14:32.433Z,100935.25
2022-10-22T23:16:59.073Z,100748.50
2022-10-22T23:19:25.676Z,100910.94
2022-10-22T23:21:54.626Z,100934.53
2022-10-22T23:24:27.655Z,100553.25
2022-10-22T23:26:56.007Z,100793.25
2022-10-22T23:29:27.995Z,100889.25
2022-10-22T23:31:55.348Z,100735.78
2022-10-22T23:34:24.850Z,100696.09
2022-10-22T23:36:52.485Z,100819.50
2022-10-22T23:39:22.115Z,100927.84
2022-10-22T23:41:49.083Z,100836.28
2022-10-22T23:44:16.033Z,100916.50
2022-10-22T23:46:43.026Z,100720.06
2022-10-22T23:49:10.531Z,100917.72
2022-10-22T23:51:38.382Z,100488.34
2022-10-22T23:54:08.104Z,100866.25
2022-10-22T23:56:35.530Z,100623.66
2022-10-22T23:59:02.929Z,100817.81
